createdAt,value
2023-03-27T00:01:18.046Z,12.66
2023-03-27T00:03:49.560Z,12.69
2023-03-27T00:06:18.682Z,12.81
2023-03-27T00:08:47.218Z,12.83
2023-03-27T00:11:15.440Z,12.61
2023-03-27T00:13:49.958Z,12.34
2023-03-27T00:16:18.801Z,12.39
2023-03-27T00:18:46.009Z,12.52
2023-03-27T00:21:12.810Z,12.69
2023-03-27T00:23:39.369Z,12.57
2023-03-27T00:26:06.382Z,12.66
2023-03-27T00:28:33.002Z,12.18
2023-03-27T00:31:00.267Z,12.39
2023-03-27T00:33:27.356Z,12.31
2023-03-27T00:35:54.564Z,11.82
2023-03-27T00:38:21.578Z,12.36
2023-03-27T00:40:50.737Z,12.35
2023-03-27T00:43:23.132Z,12.52
2023-03-27T00:45:52.767Z,12.34
2023-03-27T00:48:20.758Z,12.37
2023-03-27T00:50:49.674Z,12.32
2023-03-27T00:53:20.710Z,11.84
2023-03-27T00:55:51.706Z,11.27
2023-03-27T00:58:27.447Z,10.85
2023-03-27T01:00:56.463Z,11.10
2023-03-27T01:03:26.553Z,11.61
2023-03-27T01:05:56.045Z,11.83
2023-03-27T01:08:24.563Z,12.09
2023-03-27T01:11:04.645Z,11.93
2023-03-27T01:13:59.221Z,12.08
2023-03-27T01:16:33.810Z,12.29
2023-03-27T01:19:21.334Z,12.37
2023-03-27T01:21:56.790Z,12.42
2023-03-27T01:24:51.336Z,12.28
2023-03-27T01:27:39.545Z,12.33
2023-03-27T01:30:26.045Z,12.10
2023-03-27T01:33:20.466Z,11.74
2023-03-27T01:36:02.293Z,11.94
2023-03-27T01:38:43.997Z,11.83
2023-03-27T01:41:28.130Z,11.84
2023-03-27T01:44:00.806Z,12.15
2023-03-27T01:46:41.799Z,12.25
2023-03-27T01:49:13.569Z,12.48
2023-03-27T01:51:46.294Z,12.29
2023-03-27T01:54:18.894Z,12.38
2023-03-27T01:56:53.955Z,12.37
2023-03-27T01:59:24.831Z,12.52
2023-03-27T02:01:56.464Z,12.42
2023-03-27T02:04:33.471Z,11.66
2023-03-27T02:07:05.990Z,12.06
2023-03-27T02:09:41.454Z,11.80
2023-03-27T02:12:13.408Z,11.64
2023-03-27T02:14:54.187Z,11.51
2023-03-27T02:17:26.371Z,11.85
2023-03-27T02:20:00.870Z,11.70
2023-03-27T02:22:37.281Z,11.21
2023-03-27T02:25:25.268Z,11.58
2023-03-27T02:28:16.346Z,11.89
2023-03-27T02:31:06.239Z,11.93
2023-03-27T02:34:02.247Z,11.02
2023-03-27T02:36:44.568Z,11.52
2023-03-27T02:39:22.654Z,11.53
2023-03-27T02:42:02.379Z,9.92
2023-03-27T02:44:31.945Z,8.97
2023-03-27T02:47:07.682Z,10.25
2023-03-27T02:49:46.294Z,10.79
2023-03-27T02:52:27.372Z,11.21
2023-03-27T02:55:06.044Z,11.32
2023-03-27T02:57:38.807Z,11.29
2023-03-27T03:00:14.267Z,11.61
2023-03-27T03:02:41.766Z,11.59
2023-03-27T03:05:17.915Z,11.41
2023-03-27T03:07:46.261Z,11.64
2023-03-27T03:10:13.577Z,11.70
2023-03-27T03:12:40.227Z,11.67
2023-03-27T03:15:11.316Z,11.70
2023-03-27T03:17:38.081Z,11.72
2023-03-27T03:20:05.834Z,11.73
2023-03-27T03:22:32.439Z,11.25
2023-03-27T03:24:59.049Z,10.80
2023-03-27T03:27:25.691Z,10.96
2023-03-27T03:29:53.205Z,10.78
2023-03-27T03:32:19.860Z,10.11
2023-03-27T03:34:49.237Z,10.69
2023-03-27T03:37:15.995Z,10.32
2023-03-27T03:39:43.012Z,10.64
2023-03-27T03:42:09.688Z,11.05
2023-03-27T03:44:49.172Z,11.00
2023-03-27T03:47:15.759Z,10.99
2023-03-27T03:49:42.699Z,10.89
2023-03-27T03:52:09.295Z,10.88
2023-03-27T03:54:38.704Z,10.96
2023-03-27T03:57:05.624Z,11.20
2023-03-27T03:59:32.339Z,11.14
2023-03-27T04:01:58.988Z,11.23
2023-03-27T04:04:25.597Z,11.46
2023-03-27T04:06:53.114Z,11.54
2023-03-27T04:09:22.277Z,11.25
2023-03-27T04:11:48.917Z,11.27
2023-03-27T04:14:15.676Z,11.35
2023-03-27T04:16:42.281Z,11.49
2023-03-27T04:19:09.055Z,11.59
2023-03-27T04:21:36.512Z,11.43
2023-03-27T04:24:03.171Z,11.45
2023-03-27T04:26:30.011Z,11.25
2023-03-27T04:28:56.748Z,11.42
2023-03-27T04:31:23.420Z,11.34
2023-03-27T04:33:52.113Z,11.46
2023-03-27T04:36:19.681Z,11.64
2023-03-27T04:38:48.133Z,11.69
2023-03-27T04:41:14.843Z,11.67
2023-03-27T04:43:41.904Z,11.70
2023-03-27T04:46:09.190Z,11.71
2023-03-27T04:48:38.472Z,11.54
2023-03-27T04:51:08.371Z,11.57
2023-03-27T04:53:36.466Z,11.42
2023-03-27T04:56:03.892Z,11.85
2023-03-27T04:58:30.608Z,12.15
2023-03-27T05:00:58.004Z,11.89
2023-03-27T05:03:25.946Z,11.59
2023-03-27T05:05:52.819Z,11.30
2023-03-27T05:08:19.856Z,11.03
2023-03-27T05:10:47.140Z,10.01
2023-03-27T05:13:14.015Z,10.87
2023-03-27T05:15:41.166Z,11.27
2023-03-27T05:18:09.242Z,11.08
2023-03-27T05:20:37.000Z,11.60
2023-03-27T05:23:04.266Z,11.99
2023-03-27T05:25:32.699Z,12.13
2023-03-27T05:28:00.610Z,12.24
2023-03-27T05:30:28.246Z,11.79
2023-03-27T05:32:54.957Z,12.03
2023-03-27T05:35:24.000Z,11.66
2023-03-27T05:37:53.299Z,10.98
2023-03-27T05:40:22.530Z,11.96
2023-03-27T05:42:50.417Z,12.15
2023-03-27T05:45:18.039Z,12.37
2023-03-27T05:47:48.153Z,12.38
2023-03-27T05:50:16.553Z,11.59
2023-03-27T05:52:43.425Z,11.36
2023-03-27T05:55:10.509Z,10.84
2023-03-27T05:57:41.553Z,11.33
2023-03-27T06:00:14.037Z,11.73
2023-03-27T06:02:45.024Z,12.04
2023-03-27T06:05:16.533Z,12.61
2023-03-27T06:07:43.907Z,12.82
2023-03-27T06:10:14.284Z,12.95
2023-03-27T06:12:42.837Z,12.63
2023-03-27T06:15:10.187Z,12.32
2023-03-27T06:17:42.290Z,12.61
2023-03-27T06:20:15.435Z,12.10
2023-03-27T06:22:47.147Z,11.56
2023-03-27T06:25:14.497Z,11.36
2023-03-27T06:27:48.597Z,11.42
2023-03-27T06:30:18.131Z,11.96
2023-03-27T06:32:49.440Z,12.14
2023-03-27T06:35:17.376Z,12.64
2023-03-27T06:37:50.737Z,11.94
2023-03-27T06:40:23.162Z,12.10
2023-03-27T06:42:51.028Z,12.08
2023-03-27T06:45:17.652Z,12.83
2023-03-27T06:47:54.792Z,12.52
2023-03-27T06:50:25.495Z,11.95
2023-03-27T06:52:52.173Z,12.50
2023-03-27T06:55:21.793Z,12.79
2023-03-27T06:57:51.184Z,13.16
2023-03-27T07:00:20.334Z,12.74
2023-03-27T07:02:47.195Z,12.85
2023-03-27T07:05:15.638Z,13.47
2023-03-27T07:07:43.135Z,13.62
2023-03-27T07:10:11.021Z,13.91
2023-03-27T07:12:38.315Z,13.85
2023-03-27T07:15:06.322Z,14.11
2023-03-27T07:17:45.857Z,14.23
2023-03-27T07:20:15.164Z,14.33
2023-03-27T07:22:43.151Z,14.68
2023-03-27T07:25:11.328Z,14.74
2023-03-27T07:27:38.835Z,15.39
2023-03-27T07:30:08.188Z,15.60
2023-03-27T07:32:37.896Z,15.38
2023-03-27T07:35:05.530Z,15.71
2023-03-27T07:37:32.383Z,15.71
2023-03-27T07:39:58.999Z,16.00
2023-03-27T07:42:26.108Z,15.78
2023-03-27T07:44:52.969Z,15.61
2023-03-27T07:47:20.059Z,15.81
2023-03-27T07:49:46.698Z,15.70
2023-03-27T07:52:14.729Z,15.16
2023-03-27T07:54:43.190Z,15.20
2023-03-27T07:57:11.368Z,14.83
2023-03-27T07:59:38.293Z,15.26
2023-03-27T08:02:05.603Z,15.46
2023-03-27T08:04:32.246Z,15.41
2023-03-27T08:06:59.368Z,15.49
2023-03-27T08:09:27.147Z,15.75
2023-03-27T08:11:53.720Z,15.69
2023-03-27T08:14:20.362Z,15.72
2023-03-27T08:16:47.093Z,15.67
2023-03-27T08:19:14.187Z,15.42
2023-03-27T08:21:40.859Z,14.62
2023-03-27T08:24:08.234Z,14.59
2023-03-27T08:26:36.340Z,15.01
2023-03-27T08:29:03.686Z,14.51
2023-03-27T08:31:31.429Z,15.09
2023-03-27T08:33:58.118Z,15.35
2023-03-27T08:36:24.783Z,14.98
2023-03-27T08:38:51.592Z,15.29
2023-03-27T08:41:38.677Z,15.23
2023-03-27T08:44:11.168Z,15.44
2023-03-27T08:46:42.970Z,15.77
2023-03-27T08:49:21.270Z,15.52
2023-03-27T08:52:23.901Z,15.87
2023-03-27T08:54:58.354Z,16.49
2023-03-27T08:57:28.379Z,15.89
2023-03-27T08:59:58.919Z,15.97
2023-03-27T09:02:34.369Z,15.29
2023-03-27T09:05:15.542Z,15.53
2023-03-27T09:07:43.563Z,16.07
2023-03-27T09:10:31.670Z,15.91
2023-03-27T09:13:07.858Z,16.21
2023-03-27T09:15:40.867Z,15.95
2023-03-27T09:18:21.936Z,15.85
2023-03-27T09:20:53.538Z,16.52
2023-03-27T09:23:37.145Z,16.12
2023-03-27T09:26:17.316Z,15.03
2023-03-27T09:29:24.952Z,14.66
2023-03-27T09:31:57.255Z,14.12
2023-03-27T09:34:34.627Z,14.62
2023-03-27T09:37:02.545Z,14.50
2023-03-27T09:39:34.009Z,14.58
2023-03-27T09:42:09.208Z,14.34
2023-03-27T09:44:40.634Z,14.24
2023-03-27T09:47:15.472Z,14.40
2023-03-27T09:50:35.160Z,13.99
2023-03-27T09:53:13.525Z,14.05
2023-03-27T09:56:03.609Z,14.54
2023-03-27T09:58:40.859Z,14.37
2023-03-27T10:01:15.738Z,14.12
2023-03-27T10:04:01.215Z,14.08
2023-03-27T10:06:38.781Z,14.18
2023-03-27T10:09:35.733Z,14.48
2023-03-27T10:12:18.293Z,14.53
2023-03-27T10:14:47.699Z,14.63
2023-03-27T10:17:23.509Z,14.22
2023-03-27T10:19:55.158Z,14.42
2023-03-27T10:22:38.358Z,14.68
2023-03-27T10:25:15.729Z,14.01
2023-03-27T10:27:43.840Z,13.65
2023-03-27T10:30:27.404Z,13.99
2023-03-27T10:32:54.265Z,14.49
2023-03-27T10:35:27.154Z,15.01
2023-03-27T10:37:54.801Z,15.49
2023-03-27T10:40:27.696Z,14.93
2023-03-27T10:43:02.251Z,14.59
2023-03-27T10:45:31.471Z,14.95
2023-03-27T10:48:02.270Z,14.96
2023-03-27T10:50:35.967Z,15.09
2023-03-27T10:53:21.816Z,14.74
2023-03-27T10:56:02.384Z,15.45
2023-03-27T10:58:47.319Z,15.01
2023-03-27T11:01:28.925Z,15.55
2023-03-27T11:04:00.062Z,15.30
2023-03-27T11:06:33.475Z,15.72
2023-03-27T11:09:06.275Z,15.83
2023-03-27T11:11:37.990Z,16.02
2023-03-27T11:14:17.601Z,15.98
2023-03-27T11:16:57.715Z,15.73
2023-03-27T11:19:37.800Z,16.51
2023-03-27T11:22:11.493Z,16.18
2023-03-27T11:25:18.558Z,15.72
2023-03-27T11:28:18.435Z,15.14
2023-03-27T11:31:14.953Z,14.86
2023-03-27T11:33:52.562Z,14.74
2023-03-27T11:36:24.494Z,14.64
2023-03-27T11:39:11.274Z,14.42
2023-03-27T11:41:37.844Z,13.90
2023-03-27T11:44:04.852Z,13.74
2023-03-27T11:47:08.490Z,13.42
2023-03-27T11:50:29.582Z,12.95
2023-03-27T11:53:05.072Z,12.13
2023-03-27T11:55:56.595Z,11.47
2023-03-27T11:58:38.198Z,11.07
2023-03-27T12:01:14.461Z,11.06
2023-03-27T12:03:45.628Z,10.41
2023-03-27T12:06:29.346Z,10.10
2023-03-27T12:09:02.228Z,10.32
2023-03-27T12:11:29.903Z,9.49
2023-03-27T12:14:17.680Z,9.35
2023-03-27T12:17:08.699Z,9.82
2023-03-27T12:19:53.748Z,9.01
2023-03-27T12:22:41.875Z,9.65
2023-03-27T12:25:40.343Z,9.50
2023-03-27T12:28:24.155Z,9.94
2023-03-27T12:31:19.399Z,9.90
2023-03-27T12:34:17.967Z,9.35
2023-03-27T12:36:48.233Z,8.92
2023-03-27T12:39:21.180Z,9.03
2023-03-27T12:41:47.770Z,9.23
2023-03-27T12:44:18.686Z,9.51
2023-03-27T12:47:09.711Z,9.51
2023-03-27T12:49:46.336Z,10.11
2023-03-27T12:52:15.151Z,10.69
2023-03-27T12:55:13.913Z,10.54
2023-03-27T12:57:44.856Z,10.20
2023-03-27T13:00:23.894Z,10.31
2023-03-27T13:03:27.600Z,10.46
2023-03-27T13:06:12.709Z,10.65
2023-03-27T13:09:03.067Z,11.33
2023-03-27T13:12:19.182Z,11.24
2023-03-27T13:15:13.358Z,11.19
2023-03-27T13:17:48.638Z,10.93
2023-03-27T13:20:34.962Z,10.79
2023-03-27T13:23:29.235Z,11.03
2023-03-27T13:26:08.806Z,10.71
2023-03-27T13:28:42.337Z,11.59
2023-03-27T13:31:12.298Z,11.34
2023-03-27T13:33:47.534Z,11.95
2023-03-27T13:36:20.019Z,11.49
2023-03-27T13:38:52.702Z,11.36
2023-03-27T13:41:44.197Z,11.20
2023-03-27T13:44:43.101Z,11.49
2023-03-27T13:47:34.259Z,11.63
2023-03-27T13:50:19.205Z,11.73
2023-03-27T13:53:13.552Z,12.07
2023-03-27T13:56:01.783Z,11.96
2023-03-27T13:58:53.682Z,11.87
2023-03-27T14:01:34.271Z,11.81
2023-03-27T14:04:17.838Z,12.11
2023-03-27T14:07:02.668Z,12.74
2023-03-27T14:09:41.253Z,13.08
2023-03-27T14:12:14.239Z,12.62
2023-03-27T14:15:00.532Z,12.48
2023-03-27T14:18:05.891Z,12.69
2023-03-27T14:20:55.616Z,13.26
2023-03-27T14:23:29.878Z,12.86
2023-03-27T14:26:03.700Z,13.71
2023-03-27T14:28:51.631Z,12.78
2023-03-27T14:31:19.622Z,12.62
2023-03-27T14:33:57.708Z,12.72
2023-03-27T14:36:26.487Z,13.49
2023-03-27T14:38:53.205Z,13.33
2023-03-27T14:41:26.674Z,13.54
2023-03-27T14:43:54.361Z,13.16
2023-03-27T14:46:23.552Z,13.30
2023-03-27T14:48:55.990Z,13.45
2023-03-27T14:51:42.153Z,13.54
2023-03-27T14:54:18.280Z,12.46
2023-03-27T14:56:52.646Z,13.03
2023-03-27T14:59:22.834Z,13.68
2023-03-27T15:01:51.024Z,13.97
2023-03-27T15:04:19.325Z,13.33
2023-03-27T15:06:46.024Z,12.25
2023-03-27T15:09:15.745Z,12.89
2023-03-27T15:11:53.565Z,12.69
2023-03-27T15:14:31.808Z,12.26
2023-03-27T15:17:19.351Z,12.93
2023-03-27T15:19:56.719Z,13.49
2023-03-27T15:22:33.123Z,13.44
2023-03-27T15:25:08.787Z,11.37
2023-03-27T15:27:42.696Z,12.07
2023-03-27T15:30:28.211Z,12.82
2023-03-27T15:32:57.333Z,12.92
2023-03-27T15:35:42.339Z,12.88
2023-03-27T15:38:14.186Z,13.05
2023-03-27T15:40:46.327Z,11.32
2023-03-27T15:43:12.969Z,10.49
2023-03-27T15:45:56.826Z,10.99
2023-03-27T15:48:48.336Z,11.46
2023-03-27T15:51:21.152Z,11.74
2023-03-27T15:53:49.657Z,12.08
2023-03-27T15:56:29.963Z,12.50
2023-03-27T15:59:02.603Z,12.69
2023-03-27T16:01:39.322Z,11.54
2023-03-27T16:04:15.268Z,10.98
2023-03-27T16:07:05.217Z,10.47
2023-03-27T16:09:47.268Z,10.49
2023-03-27T16:12:16.214Z,9.52
2023-03-27T16:14:48.939Z,9.56
2023-03-27T16:17:20.620Z,10.25
2023-03-27T16:19:53.567Z,11.10
2023-03-27T16:22:34.688Z,11.43
2023-03-27T16:25:06.890Z,11.75
2023-03-27T16:27:54.999Z,11.96
2023-03-27T16:30:30.702Z,12.27
2023-03-27T16:32:57.578Z,12.70
2023-03-27T16:35:24.273Z,12.59
2023-03-27T16:37:50.918Z,12.57
2023-03-27T16:40:17.481Z,12.51
2023-03-27T16:42:44.199Z,12.34
2023-03-27T16:45:11.245Z,11.73
2023-03-27T16:47:38.021Z,11.86
2023-03-27T16:50:10.920Z,11.44
2023-03-27T16:52:38.461Z,11.34
2023-03-27T16:55:07.486Z,11.51
2023-03-27T16:57:34.612Z,10.38
2023-03-27T17:00:02.256Z,9.52
2023-03-27T17:02:30.759Z,10.67
2023-03-27T17:04:58.609Z,10.75
2023-03-27T17:07:27.473Z,11.16
2023-03-27T17:09:54.762Z,11.86
2023-03-27T17:12:21.511Z,10.84
2023-03-27T17:14:48.245Z,8.72
2023-03-27T17:17:14.862Z,10.03
2023-03-27T17:19:41.451Z,11.22
2023-03-27T17:22:07.987Z,11.62
2023-03-27T17:24:45.755Z,11.81
2023-03-27T17:27:20.423Z,11.86
2023-03-27T17:29:47.024Z,12.08
2023-03-27T17:32:13.631Z,12.25
2023-03-27T17:34:41.570Z,12.14
2023-03-27T17:37:08.197Z,12.28
2023-03-27T17:39:34.747Z,12.58
2023-03-27T17:42:02.184Z,12.65
2023-03-27T17:44:28.745Z,12.93
2023-03-27T17:46:55.574Z,11.76
2023-03-27T17:49:22.294Z,11.54
2023-03-27T17:51:48.909Z,11.89
2023-03-27T17:54:15.551Z,11.93
2023-03-27T17:56:42.250Z,12.59
2023-03-27T17:59:10.123Z,12.90
2023-03-27T18:01:36.830Z,13.04
2023-03-27T18:04:03.941Z,12.42
2023-03-27T18:06:30.677Z,12.74
2023-03-27T18:08:58.606Z,12.99
2023-03-27T18:11:30.093Z,12.56
2023-03-27T18:13:57.606Z,10.17
2023-03-27T18:16:25.093Z,9.52
2023-03-27T18:18:55.567Z,8.56
2023-03-27T18:21:23.197Z,8.09
2023-03-27T18:23:53.471Z,7.90
2023-03-27T18:26:21.450Z,8.22
2023-03-27T18:28:48.979Z,8.09
2023-03-27T18:31:17.854Z,8.35
2023-03-27T18:33:44.874Z,8.30
2023-03-27T18:36:12.063Z,7.81
2023-03-27T18:38:40.345Z,8.28
2023-03-27T18:41:08.080Z,8.52
2023-03-27T18:43:34.830Z,7.94
2023-03-27T18:46:05.783Z,8.29
2023-03-27T18:48:33.686Z,7.96
2023-03-27T18:51:03.147Z,8.15
2023-03-27T18:53:30.321Z,8.20
2023-03-27T18:55:58.620Z,8.18
2023-03-27T18:58:27.798Z,8.21
2023-03-27T19:00:57.493Z,8.32
2023-03-27T19:03:26.715Z,8.90
2023-03-27T19:05:53.950Z,8.73
2023-03-27T19:08:21.749Z,9.05
2023-03-27T19:10:48.936Z,9.17
2023-03-27T19:13:16.060Z,9.30
2023-03-27T19:15:43.134Z,9.40
2023-03-27T19:18:10.211Z,8.50
2023-03-27T19:20:36.879Z,8.42
2023-03-27T19:23:03.994Z,8.69
2023-03-27T19:25:34.131Z,8.70
2023-03-27T19:28:05.891Z,8.25
2023-03-27T19:30:33.660Z,8.27
2023-03-27T19:33:00.527Z,8.45
2023-03-27T19:35:27.645Z,8.61
2023-03-27T19:37:54.656Z,8.62
2023-03-27T19:40:25.530Z,8.17
2023-03-27T19:42:52.534Z,8.65
2023-03-27T19:45:19.366Z,8.83
2023-03-27T19:47:46.014Z,8.58
2023-03-27T19:50:14.638Z,8.86
2023-03-27T19:52:42.517Z,8.56
2023-03-27T19:55:09.411Z,9.32
2023-03-27T19:57:36.119Z,9.26
2023-03-27T20:00:09.514Z,9.03
2023-03-27T20:02:36.973Z,8.63
2023-03-27T20:05:03.834Z,8.15
2023-03-27T20:07:30.491Z,8.50
2023-03-27T20:09:57.081Z,8.40
2023-03-27T20:12:24.967Z,8.29
2023-03-27T20:15:02.837Z,8.50
2023-03-27T20:17:37.324Z,8.14
2023-03-27T20:20:06.093Z,8.09
2023-03-27T20:22:38.588Z,8.38
2023-03-27T20:25:10.018Z,8.22
2023-03-27T20:27:36.655Z,8.79
2023-03-27T20:30:03.376Z,8.35
2023-03-27T20:32:30.116Z,8.60
2023-03-27T20:34:56.748Z,8.84
2023-03-27T20:37:27.200Z,8.80
2023-03-27T20:39:54.358Z,9.16
2023-03-27T20:42:23.211Z,8.64
2023-03-27T20:44:58.875Z,8.87
2023-03-27T20:47:25.610Z,8.59
2023-03-27T20:49:52.384Z,9.17
2023-03-27T20:52:19.913Z,8.92
2023-03-27T20:54:48.002Z,8.82
2023-03-27T20:57:14.822Z,8.64
2023-03-27T20:59:41.499Z,8.64
2023-03-27T21:02:15.861Z,8.63
2023-03-27T21:04:42.499Z,8.03
2023-03-27T21:07:09.765Z,8.87
2023-03-27T21:09:38.239Z,9.15
2023-03-27T21:12:05.176Z,9.56
2023-03-27T21:14:33.892Z,9.50
2023-03-27T21:17:00.579Z,9.56
2023-03-27T21:19:27.438Z,8.74
2023-03-27T21:21:54.306Z,9.20
2023-03-27T21:24:21.146Z,8.22
2023-03-27T21:26:47.891Z,8.08
2023-03-27T21:29:15.498Z,8.97
2023-03-27T21:31:43.156Z,9.01
2023-03-27T21:34:12.356Z,8.53
2023-03-27T21:36:39.061Z,8.06
2023-03-27T21:39:05.907Z,8.41
2023-03-27T21:41:32.742Z,8.43
2023-03-27T21:43:59.375Z,8.02
2023-03-27T21:46:26.197Z,8.56
2023-03-27T21:48:53.198Z,8.54
2023-03-27T21:51:19.950Z,7.98
2023-03-27T21:53:46.895Z,7.84
2023-03-27T21:56:13.826Z,7.88
2023-03-27T21:58:40.602Z,7.69
2023-03-27T22:01:07.566Z,7.35
2023-03-27T22:03:34.168Z,7.41
2023-03-27T22:06:11.771Z,7.25
2023-03-27T22:08:39.921Z,7.90
2023-03-27T22:11:06.806Z,7.91
2023-03-27T22:13:36.281Z,7.65
2023-03-27T22:16:11.973Z,7.55
2023-03-27T22:18:39.734Z,7.69
2023-03-27T22:21:22.045Z,7.66
2023-03-27T22:23:50.977Z,7.13
2023-03-27T22:26:23.361Z,6.66
2023-03-27T22:28:52.514Z,6.63
2023-03-27T22:31:20.310Z,6.36
2023-03-27T22:33:47.871Z,6.41
2023-03-27T22:36:14.526Z,6.45
2023-03-27T22:38:41.596Z,6.48
2023-03-27T22:41:10.367Z,6.49
2023-03-27T22:43:37.067Z,6.12
2023-03-27T22:46:09.057Z,5.71
2023-03-27T22:48:35.884Z,6.11
2023-03-27T22:51:02.709Z,5.89
2023-03-27T22:53:31.914Z,5.67
2023-03-27T22:56:00.024Z,5.37
2023-03-27T22:58:27.439Z,5.03
2023-03-27T23:00:55.450Z,5.03
2023-03-27T23:03:23.341Z,5.53
2023-03-27T23:05:51.081Z,5.43
2023-03-27T23:08:19.920Z,5.00
2023-03-27T23:10:47.075Z,4.77
2023-03-27T23:13:13.807Z,4.68
2023-03-27T23:15:40.418Z,4.34
2023-03-27T23:18:07.049Z,4.39
2023-03-27T23:20:33.734Z,4.57
2023-03-27T23:23:00.557Z,4.23
2023-03-27T23:25:27.192Z,4.22
2023-03-27T23:27:53.805Z,4.83
2023-03-27T23:30:20.536Z,4.46
2023-03-27T23:32:47.178Z,4.55
2023-03-27T23:35:14.116Z,4.77
2023-03-27T23:37:40.971Z,4.87
2023-03-27T23:40:08.429Z,4.64
2023-03-27T23:42:35.029Z,4.68
2023-03-27T23:45:02.273Z,4.41
2023-03-27T23:47:28.863Z,4.22
2023-03-27T23:49:55.454Z,4.42
2023-03-27T23:52:22.076Z,4.57
2023-03-27T23:54:48.668Z,4.02
2023-03-27T23:57:15.383Z,4.28
2023-03-27T23:59:41.969Z,4.08
